Eureka, Montana
Current Conditions -  °F | °C
As of 7:55 AM on Friday 24 Oct 2014 (Local Time) from KGPI Reporting Station
Clear Clear  
Wind Chill: 37°   Ceiling: Unl
Heat Index: 40°   Visibility: 10mi
Dew Point: 35°   Wind: 5mph
Humidity: 83%   Direction: 230°SW
Pressure: 30.05"   Gusts: NA
Location:  48.88°N, 115.05°W
Report Text: KGPI 241355Z 23004KT 10SM CLR 04/02 A3005 RMK AO2 SLP187 T00440017
Loading
Personal Weather Stations






























Interactive Weather Map
Tropical Storm Tracking
New forecast layout! Learn more

10-Day Weather Forecast

Advertisements
Track Severe Weather on mobile